sensor_id;sensor_type;location;lat;lon;timestamp;P1;durP1;ratioP1;P2;durP2;ratioP2
63444;SDS011;49573;47.682;9.170;2022-10-16T00:01:13;8.40;;;4.80;;
63444;SDS011;49573;47.682;9.170;2022-10-16T00:04:00;5.70;;;4.20;;
63444;SDS011;49573;47.682;9.170;2022-10-16T00:06:48;12.45;;;5.35;;
63444;SDS011;49573;47.682;9.170;2022-10-16T00:09:34;6.20;;;4.70;;
63444;SDS011;49573;47.682;9.170;2022-10-16T00:12:21;9.95;;;4.78;;
63444;SDS011;49573;47.682;9.170;2022-10-16T00:15:07;9.95;;;4.50;;
63444;SDS011;49573;47.682;9.170;2022-10-16T00:20:40;7.25;;;4.65;;
63444;SDS011;49573;47.682;9.170;2022-10-16T00:23:26;12.65;;;5.50;;
63444;SDS011;49573;47.682;9.170;2022-10-16T00:26:13;11.00;;;4.30;;
63444;SDS011;49573;47.682;9.170;2022-10-16T00:29:02;10.20;;;4.40;;
63444;SDS011;49573;47.682;9.170;2022-10-16T00:31:49;6.65;;;4.43;;
63444;SDS011;49573;47.682;9.170;2022-10-16T00:34:35;7.75;;;4.50;;
63444;SDS011;49573;47.682;9.170;2022-10-16T00:37:21;9.93;;;5.35;;
63444;SDS011;49573;47.682;9.170;2022-10-16T00:40:07;13.07;;;4.80;;
63444;SDS011;49573;47.682;9.170;2022-10-16T00:42:54;5.95;;;4.18;;
63444;SDS011;49573;47.682;9.170;2022-10-16T00:45:41;9.80;;;4.00;;
63444;SDS011;49573;47.682;9.170;2022-10-16T00:48:27;5.65;;;4.15;;
63444;SDS011;49573;47.682;9.170;2022-10-16T00:51:14;11.57;;;4.32;;
63444;SDS011;49573;47.682;9.170;2022-10-16T00:54:04;8.30;;;4.07;;
63444;SDS011;49573;47.682;9.170;2022-10-16T00:56:53;9.57;;;3.47;;
63444;SDS011;49573;47.682;9.170;2022-10-16T00:59:40;6.53;;;4.00;;
63444;SDS011;49573;47.682;9.170;2022-10-16T01:05:15;8.68;;;4.40;;
63444;SDS011;49573;47.682;9.170;2022-10-16T01:08:03;8.20;;;4.30;;
63444;SDS011;49573;47.682;9.170;2022-10-16T01:10:56;10.23;;;5.00;;
63444;SDS011;49573;47.682;9.170;2022-10-16T01:13:46;8.02;;;4.60;;
63444;SDS011;49573;47.682;9.170;2022-10-16T01:16:39;11.85;;;4.32;;
63444;SDS011;49573;47.682;9.170;2022-10-16T01:19:40;7.13;;;4.15;;
63444;SDS011;49573;47.682;9.170;2022-10-16T01:22:39;9.77;;;4.47;;
63444;SDS011;49573;47.682;9.170;2022-10-16T01:25:48;7.55;;;4.20;;
63444;SDS011;49573;47.682;9.170;2022-10-16T01:28:58;8.63;;;4.50;;
63444;SDS011;49573;47.682;9.170;2022-10-16T01:31:50;12.02;;;5.47;;
63444;SDS011;49573;47.682;9.170;2022-10-16T01:34:42;9.75;;;4.82;;
63444;SDS011;49573;47.682;9.170;2022-10-16T01:37:35;8.55;;;4.63;;
63444;SDS011;49573;47.682;9.170;2022-10-16T01:40:26;10.73;;;4.45;;
63444;SDS011;49573;47.682;9.170;2022-10-16T01:43:14;10.95;;;4.45;;
63444;SDS011;49573;47.682;9.170;2022-10-16T01:46:06;18.73;;;5.90;;
63444;SDS011;49573;47.682;9.170;2022-10-16T01:48:53;7.38;;;5.35;;
63444;SDS011;49573;47.682;9.170;2022-10-16T01:51:40;22.10;;;11.27;;
63444;SDS011;49573;47.682;9.170;2022-10-16T01:54:29;29.67;;;12.98;;
63444;SDS011;49573;47.682;9.170;2022-10-16T01:57:18;29.05;;;13.50;;
63444;SDS011;49573;47.682;9.170;2022-10-16T02:00:07;30.55;;;13.52;;
63444;SDS011;49573;47.682;9.170;2022-10-16T02:02:58;28.95;;;12.02;;
63444;SDS011;49573;47.682;9.170;2022-10-16T02:05:49;25.55;;;11.52;;
63444;SDS011;49573;47.682;9.170;2022-10-16T02:08:38;14.18;;;7.85;;
63444;SDS011;49573;47.682;9.170;2022-10-16T02:11:25;12.65;;;5.13;;
63444;SDS011;49573;47.682;9.170;2022-10-16T02:14:11;13.55;;;5.75;;
63444;SDS011;49573;47.682;9.170;2022-10-16T02:16:58;12.33;;;5.43;;
63444;SDS011;49573;47.682;9.170;2022-10-16T02:19:45;11.27;;;4.97;;
63444;SDS011;49573;47.682;9.170;2022-10-16T02:22:34;10.23;;;5.45;;
63444;SDS011;49573;47.682;9.170;2022-10-16T02:25:25;7.90;;;5.47;;
63444;SDS011;49573;47.682;9.170;2022-10-16T02:28:16;13.65;;;7.10;;
63444;SDS011;49573;47.682;9.170;2022-10-16T02:31:05;11.75;;;6.93;;
63444;SDS011;49573;47.682;9.170;2022-10-16T02:33:55;14.55;;;7.43;;
63444;SDS011;49573;47.682;9.170;2022-10-16T02:36:45;12.50;;;6.38;;
63444;SDS011;49573;47.682;9.170;2022-10-16T02:39:35;10.60;;;4.68;;
63444;SDS011;49573;47.682;9.170;2022-10-16T02:42:27;7.10;;;4.00;;
63444;SDS011;49573;47.682;9.170;2022-10-16T02:45:14;17.90;;;6.80;;
63444;SDS011;49573;47.682;9.170;2022-10-16T02:48:00;10.85;;;5.85;;
63444;SDS011;49573;47.682;9.170;2022-10-16T02:50:46;10.07;;;5.97;;
63444;SDS011;49573;47.682;9.170;2022-10-16T02:53:34;13.70;;;6.43;;
63444;SDS011;49573;47.682;9.170;2022-10-16T02:56:20;9.98;;;4.93;;
63444;SDS011;49573;47.682;9.170;2022-10-16T02:59:06;9.60;;;4.88;;
63444;SDS011;49573;47.682;9.170;2022-10-16T03:01:52;12.75;;;4.57;;
63444;SDS011;49573;47.682;9.170;2022-10-16T03:04:38;7.22;;;4.88;;
63444;SDS011;49573;47.682;9.170;2022-10-16T03:07:24;10.32;;;5.30;;
63444;SDS011;49573;47.682;9.170;2022-10-16T03:10:12;12.27;;;5.70;;
63444;SDS011;49573;47.682;9.170;2022-10-16T03:12:58;10.73;;;5.70;;
63444;SDS011;49573;47.682;9.170;2022-10-16T03:15:44;10.43;;;4.80;;
63444;SDS011;49573;47.682;9.170;2022-10-16T03:18:30;14.50;;;4.43;;
63444;SDS011;49573;47.682;9.170;2022-10-16T03:21:16;6.83;;;3.67;;
63444;SDS011;49573;47.682;9.170;2022-10-16T03:24:02;6.30;;;3.85;;
63444;SDS011;49573;47.682;9.170;2022-10-16T03:26:50;6.28;;;3.50;;
63444;SDS011;49573;47.682;9.170;2022-10-16T03:29:37;5.78;;;3.70;;
63444;SDS011;49573;47.682;9.170;2022-10-16T03:32:23;9.68;;;4.93;;
63444;SDS011;49573;47.682;9.170;2022-10-16T03:35:11;11.27;;;4.30;;
63444;SDS011;49573;47.682;9.170;2022-10-16T03:37:58;9.02;;;4.30;;
63444;SDS011;49573;47.682;9.170;2022-10-16T03:40:44;7.70;;;4.50;;
63444;SDS011;49573;47.682;9.170;2022-10-16T03:43:31;12.25;;;5.25;;
63444;SDS011;49573;47.682;9.170;2022-10-16T03:46:17;7.45;;;4.80;;
63444;SDS011;49573;47.682;9.170;2022-10-16T03:49:03;27.00;;;5.13;;
63444;SDS011;49573;47.682;9.170;2022-10-16T03:51:50;11.93;;;5.28;;
63444;SDS011;49573;47.682;9.170;2022-10-16T03:54:36;10.93;;;5.20;;
63444;SDS011;49573;47.682;9.170;2022-10-16T03:57:22;10.30;;;4.85;;
63444;SDS011;49573;47.682;9.170;2022-10-16T04:00:10;7.82;;;4.53;;
63444;SDS011;49573;47.682;9.170;2022-10-16T04:02:57;9.05;;;4.38;;
63444;SDS011;49573;47.682;9.170;2022-10-16T04:05:44;9.48;;;4.30;;
63444;SDS011;49573;47.682;9.170;2022-10-16T04:08:30;10.20;;;4.80;;
63444;SDS011;49573;47.682;9.170;2022-10-16T04:11:16;7.67;;;4.67;;
63444;SDS011;49573;47.682;9.170;2022-10-16T04:14:02;7.87;;;4.60;;
63444;SDS011;49573;47.682;9.170;2022-10-16T04:16:49;11.27;;;5.30;;
63444;SDS011;49573;47.682;9.170;2022-10-16T04:19:36;44.80;;;7.05;;
63444;SDS011;49573;47.682;9.170;2022-10-16T04:22:22;15.00;;;5.73;;
63444;SDS011;49573;47.682;9.170;2022-10-16T04:25:08;9.10;;;5.63;;
63444;SDS011;49573;47.682;9.170;2022-10-16T04:27:54;9.77;;;6.20;;
63444;SDS011;49573;47.682;9.170;2022-10-16T04:30:41;8.38;;;5.35;;
63444;SDS011;49573;47.682;9.170;2022-10-16T04:33:28;8.35;;;4.68;;
63444;SDS011;49573;47.682;9.170;2022-10-16T04:36:14;8.10;;;4.65;;
63444;SDS011;49573;47.682;9.170;2022-10-16T04:39:00;7.70;;;4.97;;
63444;SDS011;49573;47.682;9.170;2022-10-16T04:41:46;17.23;;;5.80;;
63444;SDS011;49573;47.682;9.170;2022-10-16T04:44:32;8.18;;;5.65;;
63444;SDS011;49573;47.682;9.170;2022-10-16T04:47:18;8.97;;;5.73;;
63444;SDS011;49573;47.682;9.170;2022-10-16T04:50:07;30.75;;;6.72;;
63444;SDS011;49573;47.682;9.170;2022-10-16T04:52:53;35.20;;;6.78;;
63444;SDS011;49573;47.682;9.170;2022-10-16T04:55:40;19.55;;;6.47;;
63444;SDS011;49573;47.682;9.170;2022-10-16T04:58:27;25.88;;;6.63;;
63444;SDS011;49573;47.682;9.170;2022-10-16T05:01:13;18.17;;;5.80;;
63444;SDS011;49573;47.682;9.170;2022-10-16T05:03:59;28.65;;;6.60;;
63444;SDS011;49573;47.682;9.170;2022-10-16T05:06:47;48.88;;;8.00;;
63444;SDS011;49573;47.682;9.170;2022-10-16T05:09:33;36.17;;;6.80;;
63444;SDS011;49573;47.682;9.170;2022-10-16T05:12:20;23.87;;;6.57;;
63444;SDS011;49573;47.682;9.170;2022-10-16T05:15:06;18.03;;;6.57;;
63444;SDS011;49573;47.682;9.170;2022-10-16T05:20:39;10.80;;;6.50;;
63444;SDS011;49573;47.682;9.170;2022-10-16T05:23:27;13.48;;;7.32;;
63444;SDS011;49573;47.682;9.170;2022-10-16T05:26:13;12.82;;;8.55;;
63444;SDS011;49573;47.682;9.170;2022-10-16T05:28:59;14.43;;;7.25;;
63444;SDS011;49573;47.682;9.170;2022-10-16T05:31:46;11.85;;;6.18;;
63444;SDS011;49573;47.682;9.170;2022-10-16T05:34:32;11.13;;;6.38;;
63444;SDS011;49573;47.682;9.170;2022-10-16T05:37:18;15.73;;;7.47;;
63444;SDS011;49573;47.682;9.170;2022-10-16T05:40:06;11.63;;;5.95;;
63444;SDS011;49573;47.682;9.170;2022-10-16T05:42:54;9.60;;;5.63;;
63444;SDS011;49573;47.682;9.170;2022-10-16T05:45:40;7.15;;;4.28;;
63444;SDS011;49573;47.682;9.170;2022-10-16T05:48:27;12.02;;;4.63;;
63444;SDS011;49573;47.682;9.170;2022-10-16T05:51:14;8.55;;;4.70;;
63444;SDS011;49573;47.682;9.170;2022-10-16T05:56:48;7.28;;;4.60;;
63444;SDS011;49573;47.682;9.170;2022-10-16T05:59:34;15.65;;;5.75;;
63444;SDS011;49573;47.682;9.170;2022-10-16T06:02:20;12.77;;;5.17;;
63444;SDS011;49573;47.682;9.170;2022-10-16T06:05:06;18.40;;;4.82;;
63444;SDS011;49573;47.682;9.170;2022-10-16T06:07:52;8.43;;;4.68;;
63444;SDS011;49573;47.682;9.170;2022-10-16T06:10:38;6.73;;;4.63;;
63444;SDS011;49573;47.682;9.170;2022-10-16T06:13:26;7.30;;;4.60;;
63444;SDS011;49573;47.682;9.170;2022-10-16T06:16:12;6.13;;;4.20;;
63444;SDS011;49573;47.682;9.170;2022-10-16T06:18:58;11.38;;;4.65;;
63444;SDS011;49573;47.682;9.170;2022-10-16T06:21:45;5.95;;;4.70;;
63444;SDS011;49573;47.682;9.170;2022-10-16T06:24:31;6.43;;;4.95;;
63444;SDS011;49573;47.682;9.170;2022-10-16T06:27:17;6.17;;;4.40;;
63444;SDS011;49573;47.682;9.170;2022-10-16T06:30:05;7.00;;;4.73;;
63444;SDS011;49573;47.682;9.170;2022-10-16T06:32:52;7.63;;;4.88;;
63444;SDS011;49573;47.682;9.170;2022-10-16T06:35:38;6.40;;;4.77;;
63444;SDS011;49573;47.682;9.170;2022-10-16T06:38:24;6.30;;;4.93;;
63444;SDS011;49573;47.682;9.170;2022-10-16T06:41:11;10.63;;;5.07;;
63444;SDS011;49573;47.682;9.170;2022-10-16T06:43:59;6.25;;;4.60;;
63444;SDS011;49573;47.682;9.170;2022-10-16T06:46:47;7.80;;;5.25;;
63444;SDS011;49573;47.682;9.170;2022-10-16T06:49:33;6.05;;;4.32;;
63444;SDS011;49573;47.682;9.170;2022-10-16T06:52:19;6.73;;;5.00;;
63444;SDS011;49573;47.682;9.170;2022-10-16T06:55:05;6.35;;;4.95;;
63444;SDS011;49573;47.682;9.170;2022-10-16T06:57:52;7.47;;;5.32;;
63444;SDS011;49573;47.682;9.170;2022-10-16T07:00:38;5.75;;;4.50;;
63444;SDS011;49573;47.682;9.170;2022-10-16T07:03:26;6.53;;;4.57;;
63444;SDS011;49573;47.682;9.170;2022-10-16T07:06:12;6.72;;;4.78;;
63444;SDS011;49573;47.682;9.170;2022-10-16T07:09:00;6.68;;;4.90;;
63444;SDS011;49573;47.682;9.170;2022-10-16T07:11:49;5.65;;;4.20;;
63444;SDS011;49573;47.682;9.170;2022-10-16T07:14:35;6.17;;;4.83;;
63444;SDS011;49573;47.682;9.170;2022-10-16T07:17:21;6.90;;;4.43;;
63444;SDS011;49573;47.682;9.170;2022-10-16T07:20:09;6.00;;;4.37;;
63444;SDS011;49573;47.682;9.170;2022-10-16T07:22:55;5.47;;;4.22;;
63444;SDS011;49573;47.682;9.170;2022-10-16T07:25:41;6.53;;;4.40;;
63444;SDS011;49573;47.682;9.170;2022-10-16T07:28:27;6.30;;;3.88;;
63444;SDS011;49573;47.682;9.170;2022-10-16T07:31:14;6.25;;;3.95;;
63444;SDS011;49573;47.682;9.170;2022-10-16T07:34:01;6.72;;;4.38;;
63444;SDS011;49573;47.682;9.170;2022-10-16T07:36:49;6.80;;;4.97;;
63444;SDS011;49573;47.682;9.170;2022-10-16T07:39:36;7.50;;;5.22;;
63444;SDS011;49573;47.682;9.170;2022-10-16T07:42:22;6.87;;;4.90;;
63444;SDS011;49573;47.682;9.170;2022-10-16T07:45:08;6.15;;;5.22;;
63444;SDS011;49573;47.682;9.170;2022-10-16T07:47:55;7.85;;;5.28;;
63444;SDS011;49573;47.682;9.170;2022-10-16T07:50:41;7.20;;;5.50;;
63444;SDS011;49573;47.682;9.170;2022-10-16T07:53:28;9.95;;;5.50;;
63444;SDS011;49573;47.682;9.170;2022-10-16T07:56:16;8.35;;;6.25;;
63444;SDS011;49573;47.682;9.170;2022-10-16T07:59:03;8.70;;;5.95;;
63444;SDS011;49573;47.682;9.170;2022-10-16T08:01:49;9.37;;;5.50;;
63444;SDS011;49573;47.682;9.170;2022-10-16T08:04:35;7.13;;;5.57;;
63444;SDS011;49573;47.682;9.170;2022-10-16T08:07:21;8.85;;;5.65;;
63444;SDS011;49573;47.682;9.170;2022-10-16T08:10:11;7.90;;;4.93;;
63444;SDS011;49573;47.682;9.170;2022-10-16T08:13:02;6.65;;;4.90;;
63444;SDS011;49573;47.682;9.170;2022-10-16T08:15:48;6.90;;;4.67;;
63444;SDS011;49573;47.682;9.170;2022-10-16T08:18:34;8.40;;;4.70;;
63444;SDS011;49573;47.682;9.170;2022-10-16T08:21:21;6.03;;;4.38;;
63444;SDS011;49573;47.682;9.170;2022-10-16T08:24:10;7.30;;;4.53;;
63444;SDS011;49573;47.682;9.170;2022-10-16T08:26:58;6.40;;;4.25;;
63444;SDS011;49573;47.682;9.170;2022-10-16T08:29:44;5.50;;;4.07;;
63444;SDS011;49573;47.682;9.170;2022-10-16T08:32:30;5.53;;;4.37;;
63444;SDS011;49573;47.682;9.170;2022-10-16T08:35:16;5.50;;;4.20;;
63444;SDS011;49573;47.682;9.170;2022-10-16T08:38:02;5.40;;;4.20;;
63444;SDS011;49573;47.682;9.170;2022-10-16T08:40:49;7.85;;;4.20;;
63444;SDS011;49573;47.682;9.170;2022-10-16T08:43:39;5.97;;;4.23;;
63444;SDS011;49573;47.682;9.170;2022-10-16T08:46:41;8.95;;;4.60;;
63444;SDS011;49573;47.682;9.170;2022-10-16T08:49:34;7.47;;;4.38;;
63444;SDS011;49573;47.682;9.170;2022-10-16T08:52:20;6.18;;;4.40;;
63444;SDS011;49573;47.682;9.170;2022-10-16T08:55:08;6.05;;;5.00;;
63444;SDS011;49573;47.682;9.170;2022-10-16T08:58:10;8.60;;;4.90;;
63444;SDS011;49573;47.682;9.170;2022-10-16T09:01:00;6.50;;;4.68;;
63444;SDS011;49573;47.682;9.170;2022-10-16T09:03:53;6.03;;;4.47;;
63444;SDS011;49573;47.682;9.170;2022-10-16T09:06:57;9.68;;;4.28;;
63444;SDS011;49573;47.682;9.170;2022-10-16T09:09:54;7.05;;;4.57;;
63444;SDS011;49573;47.682;9.170;2022-10-16T09:12:51;7.72;;;4.22;;
63444;SDS011;49573;47.682;9.170;2022-10-16T09:15:45;6.22;;;4.70;;
63444;SDS011;49573;47.682;9.170;2022-10-16T09:18:41;6.82;;;4.57;;
63444;SDS011;49573;47.682;9.170;2022-10-16T09:21:35;10.93;;;5.40;;
63444;SDS011;49573;47.682;9.170;2022-10-16T09:24:25;8.45;;;4.80;;
63444;SDS011;49573;47.682;9.170;2022-10-16T09:27:12;6.60;;;4.90;;
63444;SDS011;49573;47.682;9.170;2022-10-16T09:30:00;7.30;;;4.70;;
63444;SDS011;49573;47.682;9.170;2022-10-16T09:32:47;6.43;;;4.68;;
63444;SDS011;49573;47.682;9.170;2022-10-16T09:35:37;8.73;;;5.18;;
63444;SDS011;49573;47.682;9.170;2022-10-16T09:38:26;9.00;;;5.00;;
63444;SDS011;49573;47.682;9.170;2022-10-16T09:41:15;5.97;;;4.28;;
63444;SDS011;49573;47.682;9.170;2022-10-16T09:44:04;9.35;;;4.90;;
63444;SDS011;49573;47.682;9.170;2022-10-16T09:47:01;5.97;;;4.63;;
63444;SDS011;49573;47.682;9.170;2022-10-16T09:49:50;6.88;;;4.63;;
63444;SDS011;49573;47.682;9.170;2022-10-16T09:52:39;5.78;;;4.30;;
63444;SDS011;49573;47.682;9.170;2022-10-16T09:55:25;7.90;;;4.40;;
63444;SDS011;49573;47.682;9.170;2022-10-16T09:58:11;6.40;;;4.57;;
63444;SDS011;49573;47.682;9.170;2022-10-16T10:00:58;5.55;;;3.92;;
63444;SDS011;49573;47.682;9.170;2022-10-16T10:03:45;5.82;;;4.25;;
63444;SDS011;49573;47.682;9.170;2022-10-16T10:06:33;7.70;;;4.40;;
63444;SDS011;49573;47.682;9.170;2022-10-16T10:09:25;7.03;;;3.72;;
63444;SDS011;49573;47.682;9.170;2022-10-16T10:12:20;7.07;;;3.95;;
63444;SDS011;49573;47.682;9.170;2022-10-16T10:15:10;6.28;;;4.13;;
63444;SDS011;49573;47.682;9.170;2022-10-16T10:17:57;6.57;;;3.88;;
63444;SDS011;49573;47.682;9.170;2022-10-16T10:20:43;5.00;;;3.75;;
63444;SDS011;49573;47.682;9.170;2022-10-16T10:23:30;5.00;;;3.55;;
63444;SDS011;49573;47.682;9.170;2022-10-16T10:26:19;6.13;;;4.00;;
63444;SDS011;49573;47.682;9.170;2022-10-16T10:29:11;7.90;;;3.92;;
63444;SDS011;49573;47.682;9.170;2022-10-16T10:32:06;6.30;;;3.58;;
63444;SDS011;49573;47.682;9.170;2022-10-16T10:35:06;6.93;;;3.65;;
63444;SDS011;49573;47.682;9.170;2022-10-16T10:38:02;5.80;;;3.78;;
63444;SDS011;49573;47.682;9.170;2022-10-16T10:41:09;4.88;;;3.60;;
63444;SDS011;49573;47.682;9.170;2022-10-16T10:44:14;5.25;;;3.67;;
63444;SDS011;49573;47.682;9.170;2022-10-16T10:47:08;6.35;;;3.58;;
63444;SDS011;49573;47.682;9.170;2022-10-16T10:50:03;5.55;;;3.33;;
63444;SDS011;49573;47.682;9.170;2022-10-16T10:52:56;4.82;;;3.30;;
63444;SDS011;49573;47.682;9.170;2022-10-16T10:55:51;6.00;;;2.75;;
63444;SDS011;49573;47.682;9.170;2022-10-16T10:58:47;3.85;;;2.85;;
63444;SDS011;49573;47.682;9.170;2022-10-16T11:01:50;6.05;;;2.90;;
63444;SDS011;49573;47.682;9.170;2022-10-16T11:04:54;3.97;;;2.60;;
63444;SDS011;49573;47.682;9.170;2022-10-16T11:08:08;4.68;;;2.38;;
63444;SDS011;49573;47.682;9.170;2022-10-16T11:11:02;3.28;;;2.28;;
63444;SDS011;49573;47.682;9.170;2022-10-16T11:13:54;4.70;;;1.90;;
63444;SDS011;49573;47.682;9.170;2022-10-16T11:16:47;3.03;;;1.70;;
63444;SDS011;49573;47.682;9.170;2022-10-16T11:19:38;6.53;;;2.10;;
63444;SDS011;49573;47.682;9.170;2022-10-16T11:22:27;2.75;;;1.73;;
63444;SDS011;49573;47.682;9.170;2022-10-16T11:25:20;4.13;;;1.92;;
63444;SDS011;49573;47.682;9.170;2022-10-16T11:28:10;2.53;;;1.80;;
63444;SDS011;49573;47.682;9.170;2022-10-16T11:31:02;2.53;;;1.60;;
63444;SDS011;49573;47.682;9.170;2022-10-16T11:33:54;3.50;;;1.50;;
63444;SDS011;49573;47.682;9.170;2022-10-16T11:36:48;2.58;;;1.35;;
63444;SDS011;49573;47.682;9.170;2022-10-16T11:39:36;3.65;;;1.85;;
63444;SDS011;49573;47.682;9.170;2022-10-16T11:42:26;2.35;;;1.60;;
63444;SDS011;49573;47.682;9.170;2022-10-16T11:45:22;2.95;;;1.65;;
63444;SDS011;49573;47.682;9.170;2022-10-16T11:48:18;2.10;;;1.67;;
63444;SDS011;49573;47.682;9.170;2022-10-16T11:51:11;2.92;;;2.25;;
63444;SDS011;49573;47.682;9.170;2022-10-16T11:54:04;4.25;;;2.92;;
63444;SDS011;49573;47.682;9.170;2022-10-16T11:56:53;6.28;;;1.80;;
63444;SDS011;49573;47.682;9.170;2022-10-16T11:59:44;4.30;;;1.92;;
63444;SDS011;49573;47.682;9.170;2022-10-16T12:02:35;2.80;;;1.45;;
63444;SDS011;49573;47.682;9.170;2022-10-16T12:05:32;2.67;;;1.50;;
63444;SDS011;49573;47.682;9.170;2022-10-16T12:08:38;2.40;;;1.38;;
63444;SDS011;49573;47.682;9.170;2022-10-16T12:11:30;2.83;;;1.70;;
63444;SDS011;49573;47.682;9.170;2022-10-16T12:14:18;2.55;;;1.60;;
63444;SDS011;49573;47.682;9.170;2022-10-16T12:17:24;5.38;;;1.42;;
63444;SDS011;49573;47.682;9.170;2022-10-16T12:20:19;2.28;;;1.50;;
63444;SDS011;49573;47.682;9.170;2022-10-16T12:23:19;4.95;;;1.50;;
63444;SDS011;49573;47.682;9.170;2022-10-16T12:26:07;2.73;;;1.80;;
63444;SDS011;49573;47.682;9.170;2022-10-16T12:28:53;2.75;;;1.70;;
63444;SDS011;49573;47.682;9.170;2022-10-16T12:31:43;3.50;;;1.70;;
63444;SDS011;49573;47.682;9.170;2022-10-16T12:34:37;1.90;;;1.55;;
63444;SDS011;49573;47.682;9.170;2022-10-16T12:37:27;4.38;;;1.60;;
63444;SDS011;49573;47.682;9.170;2022-10-16T12:40:23;4.07;;;2.00;;
63444;SDS011;49573;47.682;9.170;2022-10-16T12:46:35;4.00;;;2.25;;
63444;SDS011;49573;47.682;9.170;2022-10-16T12:49:29;2.58;;;2.28;;
63444;SDS011;49573;47.682;9.170;2022-10-16T12:52:25;3.95;;;2.28;;
63444;SDS011;49573;47.682;9.170;2022-10-16T12:55:15;2.30;;;2.10;;
63444;SDS011;49573;47.682;9.170;2022-10-16T12:58:08;3.67;;;2.17;;
63444;SDS011;49573;47.682;9.170;2022-10-16T13:01:01;4.88;;;2.50;;
63444;SDS011;49573;47.682;9.170;2022-10-16T13:03:59;4.20;;;2.47;;
63444;SDS011;49573;47.682;9.170;2022-10-16T13:07:01;3.78;;;2.70;;
63444;SDS011;49573;47.682;9.170;2022-10-16T13:10:02;2.72;;;2.50;;
63444;SDS011;49573;47.682;9.170;2022-10-16T13:13:03;6.75;;;2.80;;
63444;SDS011;49573;47.682;9.170;2022-10-16T13:16:08;3.60;;;2.80;;
63444;SDS011;49573;47.682;9.170;2022-10-16T13:19:08;4.55;;;2.85;;
63444;SDS011;49573;47.682;9.170;2022-10-16T13:22:05;2.90;;;2.40;;
63444;SDS011;49573;47.682;9.170;2022-10-16T13:25:02;2.97;;;2.42;;
63444;SDS011;49573;47.682;9.170;2022-10-16T13:28:03;4.88;;;2.65;;
63444;SDS011;49573;47.682;9.170;2022-10-16T13:30:51;3.72;;;2.17;;
63444;SDS011;49573;47.682;9.170;2022-10-16T13:33:39;4.80;;;2.38;;
63444;SDS011;49573;47.682;9.170;2022-10-16T13:36:28;5.97;;;2.60;;
63444;SDS011;49573;47.682;9.170;2022-10-16T13:39:16;3.28;;;2.35;;
63444;SDS011;49573;47.682;9.170;2022-10-16T13:42:09;3.45;;;2.10;;
63444;SDS011;49573;47.682;9.170;2022-10-16T13:45:00;8.98;;;2.60;;
63444;SDS011;49573;47.682;9.170;2022-10-16T13:47:46;5.40;;;2.70;;
63444;SDS011;49573;47.682;9.170;2022-10-16T13:50:33;3.95;;;2.67;;
63444;SDS011;49573;47.682;9.170;2022-10-16T13:53:19;3.47;;;2.85;;
63444;SDS011;49573;47.682;9.170;2022-10-16T13:56:06;3.88;;;2.90;;
63444;SDS011;49573;47.682;9.170;2022-10-16T13:58:59;5.07;;;3.30;;
63444;SDS011;49573;47.682;9.170;2022-10-16T14:01:48;3.63;;;2.90;;
63444;SDS011;49573;47.682;9.170;2022-10-16T14:04:35;4.43;;;2.80;;
63444;SDS011;49573;47.682;9.170;2022-10-16T14:07:25;7.95;;;3.17;;
63444;SDS011;49573;47.682;9.170;2022-10-16T14:10:18;9.82;;;3.20;;
63444;SDS011;49573;47.682;9.170;2022-10-16T14:13:08;3.72;;;2.83;;
63444;SDS011;49573;47.682;9.170;2022-10-16T14:16:05;5.13;;;2.93;;
63444;SDS011;49573;47.682;9.170;2022-10-16T14:18:57;4.75;;;3.10;;
63444;SDS011;49573;47.682;9.170;2022-10-16T14:21:46;4.55;;;3.05;;
63444;SDS011;49573;47.682;9.170;2022-10-16T14:24:33;7.55;;;2.92;;
63444;SDS011;49573;47.682;9.170;2022-10-16T14:27:28;4.47;;;2.97;;
63444;SDS011;49573;47.682;9.170;2022-10-16T14:30:17;3.58;;;3.08;;
63444;SDS011;49573;47.682;9.170;2022-10-16T14:33:06;4.35;;;3.05;;
63444;SDS011;49573;47.682;9.170;2022-10-16T14:36:11;3.38;;;3.00;;
63444;SDS011;49573;47.682;9.170;2022-10-16T14:39:00;6.65;;;3.38;;
63444;SDS011;49573;47.682;9.170;2022-10-16T14:41:47;4.40;;;3.30;;
63444;SDS011;49573;47.682;9.170;2022-10-16T14:44:34;6.57;;;3.30;;
63444;SDS011;49573;47.682;9.170;2022-10-16T14:47:22;3.67;;;2.70;;
63444;SDS011;49573;47.682;9.170;2022-10-16T14:50:10;7.13;;;3.90;;
63444;SDS011;49573;47.682;9.170;2022-10-16T14:52:57;9.98;;;6.43;;
63444;SDS011;49573;47.682;9.170;2022-10-16T14:55:44;8.38;;;3.13;;
63444;SDS011;49573;47.682;9.170;2022-10-16T14:58:30;5.20;;;3.40;;
63444;SDS011;49573;47.682;9.170;2022-10-16T15:01:17;3.55;;;2.90;;
63444;SDS011;49573;47.682;9.170;2022-10-16T15:04:03;7.45;;;2.75;;
63444;SDS011;49573;47.682;9.170;2022-10-16T15:06:49;3.00;;;2.50;;
63444;SDS011;49573;47.682;9.170;2022-10-16T15:09:37;3.45;;;2.75;;
63444;SDS011;49573;47.682;9.170;2022-10-16T15:12:23;3.97;;;2.70;;
63444;SDS011;49573;47.682;9.170;2022-10-16T15:18:13;5.38;;;2.33;;
63444;SDS011;49573;47.682;9.170;2022-10-16T15:21:05;4.88;;;2.22;;
63444;SDS011;49573;47.682;9.170;2022-10-16T15:23:51;4.57;;;2.60;;
63444;SDS011;49573;47.682;9.170;2022-10-16T15:26:39;3.28;;;2.28;;
63444;SDS011;49573;47.682;9.170;2022-10-16T15:29:25;4.60;;;2.17;;
63444;SDS011;49573;47.682;9.170;2022-10-16T15:34:57;4.60;;;2.30;;
63444;SDS011;49573;47.682;9.170;2022-10-16T15:37:43;6.07;;;2.47;;
63444;SDS011;49573;47.682;9.170;2022-10-16T15:40:31;4.75;;;2.50;;
63444;SDS011;49573;47.682;9.170;2022-10-16T15:43:18;7.20;;;2.42;;
63444;SDS011;49573;47.682;9.170;2022-10-16T15:46:05;5.40;;;2.40;;
63444;SDS011;49573;47.682;9.170;2022-10-16T15:48:55;6.40;;;2.30;;
63444;SDS011;49573;47.682;9.170;2022-10-16T15:51:42;7.40;;;2.78;;
63444;SDS011;49573;47.682;9.170;2022-10-16T15:54:28;5.45;;;2.58;;
63444;SDS011;49573;47.682;9.170;2022-10-16T15:57:15;11.52;;;2.50;;
63444;SDS011;49573;47.682;9.170;2022-10-16T16:00:03;11.15;;;2.85;;
63444;SDS011;49573;47.682;9.170;2022-10-16T16:02:50;8.25;;;2.92;;
63444;SDS011;49573;47.682;9.170;2022-10-16T16:05:37;5.88;;;2.65;;
63444;SDS011;49573;47.682;9.170;2022-10-16T16:08:25;12.68;;;2.92;;
63444;SDS011;49573;47.682;9.170;2022-10-16T16:11:12;28.92;;;3.55;;
63444;SDS011;49573;47.682;9.170;2022-10-16T16:13:58;12.98;;;3.00;;
63444;SDS011;49573;47.682;9.170;2022-10-16T16:19:32;14.25;;;3.03;;
63444;SDS011;49573;47.682;9.170;2022-10-16T16:22:19;9.18;;;2.40;;
63444;SDS011;49573;47.682;9.170;2022-10-16T16:27:51;14.43;;;2.58;;
63444;SDS011;49573;47.682;9.170;2022-10-16T16:30:38;19.92;;;4.60;;
63444;SDS011;49573;47.682;9.170;2022-10-16T16:33:24;9.07;;;2.83;;
63444;SDS011;49573;47.682;9.170;2022-10-16T16:38:58;11.02;;;2.88;;
63444;SDS011;49573;47.682;9.170;2022-10-16T16:41:45;5.10;;;2.45;;
63444;SDS011;49573;47.682;9.170;2022-10-16T16:44:31;10.80;;;2.75;;
63444;SDS011;49573;47.682;9.170;2022-10-16T16:47:18;5.47;;;2.38;;
63444;SDS011;49573;47.682;9.170;2022-10-16T16:50:04;7.82;;;2.85;;
63444;SDS011;49573;47.682;9.170;2022-10-16T16:52:52;7.05;;;2.72;;
63444;SDS011;49573;47.682;9.170;2022-10-16T16:55:39;11.40;;;2.75;;
63444;SDS011;49573;47.682;9.170;2022-10-16T16:58:25;10.23;;;2.83;;
63444;SDS011;49573;47.682;9.170;2022-10-16T17:01:11;9.05;;;2.88;;
63444;SDS011;49573;47.682;9.170;2022-10-16T17:03:58;7.75;;;2.65;;
63444;SDS011;49573;47.682;9.170;2022-10-16T17:09:31;9.80;;;3.03;;
63444;SDS011;49573;47.682;9.170;2022-10-16T17:15:05;7.72;;;2.80;;
63444;SDS011;49573;47.682;9.170;2022-10-16T17:17:52;6.28;;;2.50;;
63444;SDS011;49573;47.682;9.170;2022-10-16T17:20:38;12.95;;;2.85;;
63444;SDS011;49573;47.682;9.170;2022-10-16T17:23:24;8.18;;;2.40;;
63444;SDS011;49573;47.682;9.170;2022-10-16T17:26:11;8.57;;;2.70;;
63444;SDS011;49573;47.682;9.170;2022-10-16T17:29:00;14.23;;;2.40;;